• Join FlightAware (Why Join?)
  • Login
  • US Flag 
01:40AM EDT


 

Airport Tracker/Info


-or-


 

Live Flight TrackerFlight Track Log ✈ N983CE ✈ 07-May-2013 ✈ KPLN - KPTK

Flight Track Log - Related Links

Times and Time Zones

All times are in EDT time to prevent confusion due to time zone crossing. See the N983CE flight status page for this flight to view local times or setup timezone preferences in your user account.

Time Position Orientation Groundspeed Altitude Reporting Facility
EDT Latitude Longitude Course Direction KTS MPH feet Rate Location/Type
05:23PM 45.4639 -84.8550 170° South 247 284 10,900  Level Minneapolis Center
05:24PM 45.3933 -84.8453 174° South 250 288 14,700 3,720 Climbing Minneapolis Center
05:25PM 45.2978 -84.8311 174° South 265 305 18,700 3,000 Climbing Minneapolis Center
05:26PM 45.2072 -84.8150 173° South 323 372 20,900 1,080 Climbing Minneapolis Center
05:27PM 45.1069 -84.7981 173° South 338 389 21,000  Climbing Minneapolis Center
05:28PM 45.0078 -84.7822 174° South 336 387 21,000  Level Minneapolis Center
05:29PM 44.9172 -84.7672 173° South 332 382 21,000  Level Minneapolis Center
05:30PM 44.8208 -84.7514 173° South 328 377 21,000  Level Minneapolis Center
05:31PM 44.7464 -84.7300 168° South 320 368 21,000  Level Minneapolis Center
05:32PM 44.6439 -84.6722 158° South 329 379 21,000  Level Minneapolis Center
05:33PM 44.5572 -84.6256 159° South 333 383 21,000  Level Minneapolis Center
05:34PM 44.4708 -84.5806 160° South 332 382 21,000  Level Minneapolis Center
05:35PM 44.3736 -84.5275 159° South 333 383 21,000  Level Minneapolis Center
05:36PM 44.2883 -84.4836 160° South 330 380 21,000 -720 Level Minneapolis Center
05:37PM 44.1961 -84.4339 159° South 333 383 19,600 -960 Descending Minneapolis Center
05:38PM 44.1086 -84.3886 160° South 340 391 19,000 -300 Descending Minneapolis Center
05:39PM 44.0169 -84.3408 159° South 328 377 19,000  Level Minneapolis Center
05:40PM 43.9372 -84.2992 159° South 323 372 19,000  Level Minneapolis Center
05:41PM 43.8486 -84.2542 160° South 332 382 19,000  Level Minneapolis Center
05:42PM 43.7569 -84.2053 159° South 345 397 19,000 660 Level Minneapolis Center
05:44PM 43.6289 -84.1386 159° South 350 403 20,600  Climbing Minneapolis Center
05:44PM 43.5569 -84.1039 161° South 347 399 19,000 -6,000 Descending Cleveland Center
05:45PM 43.4667 -84.0558 159° South 347 399 10,000 -3,900 Descending Cleveland Center
05:46PM 43.3783 -84.0108 160° South 336 387 11,200 480 Climbing Cleveland Center
05:47PM 43.2922 -83.9689 160° South 343 395 11,000 -120 Descending Cleveland Center
05:48PM 43.2039 -83.9242 160° South 343 395 11,000  Level Cleveland Center
05:49PM 43.1156 -83.8797 160° South 343 395 11,000 -1,260 Level Cleveland Center
05:50PM 43.0375 -83.8386 159° South 328 377 8,500 -2,820 Descending Cleveland Center
05:51PM 42.9842 -83.8103 159° South 264 304 6,000 -2,520 Descending Cleveland Center
05:52PM 42.9492 -83.7942 161° South 256 295 5,300 -1,500 Descending Cleveland Center
05:52PM 42.9039 -83.7719 160° South 258 297 4,200 -1,200 Descending Cleveland Center
05:53PM 42.8833 -83.7625 161° South 253 291 4,100 -240 Descending Cleveland Center
05:53PM 42.8397 -83.7489 167° South 252 290 4,000  Descending Cleveland Center
05:54PM 42.8169 -83.7450 173° South 248 285 4,100  Climbing Cleveland Center
05:54PM 42.7775 -83.7403 175° South 252 290 4,000 -300 Descending Cleveland Center
05:55PM 42.7553 -83.7136 139° Southeast 243 280 3,800 -720 Descending Cleveland Center
05:55PM 42.7275 -83.6669 129° Southeast 234 269 3,300 -840 Descending Cleveland Center
05:56PM 42.7114 -83.6408 130° Southeast 231 266 3,000 -600 Descending Cleveland Center
05:56PM 42.6894 -83.6028 128° Southeast 221 254 2,700 -540 Descending Cleveland Center
05:57PM 42.6817 -83.5828 118° Southeast 175 201 2,500 -240 Descending Cleveland Center
05:58PM 42.6600 -83.5336 121° Southeast 142 163 2,400 -360 Descending Cleveland Center
05:59PM 42.6633 -83.4803 85° East 120 138 1,800 -600 Descending Cleveland Center
06:01PM 42.6500 -83.4167 144° Southeast  Level FlightAware Approximate
06:08PM 42.6656 -83.4205 144° Southeast  Level Estimated